createdAt,value
2018-02-18T00:01:05.704Z,34.37
2018-02-18T00:03:34.112Z,33.90
2018-02-18T00:06:02.134Z,33.70
2018-02-18T00:08:29.803Z,33.13
2018-02-18T00:10:57.485Z,32.73
2018-02-18T00:13:26.428Z,32.47
2018-02-18T00:15:54.055Z,33.40
2018-02-18T00:18:21.995Z,32.90
2018-02-18T00:20:49.591Z,33.20
2018-02-18T00:23:17.161Z,34.57
2018-02-18T00:25:44.924Z,35.40
2018-02-18T00:28:12.497Z,32.93
2018-02-18T00:30:40.096Z,31.37
2018-02-18T00:33:07.760Z,33.43
2018-02-18T00:35:35.360Z,36.80
2018-02-18T00:38:03.725Z,36.17
2018-02-18T00:40:32.239Z,32.50
2018-02-18T00:42:59.890Z,35.00
2018-02-18T00:45:27.575Z,33.97
2018-02-18T00:47:55.255Z,34.63
2018-02-18T00:50:23.191Z,33.30
2018-02-18T00:52:50.911Z,34.47
2018-02-18T00:55:18.746Z,32.27
2018-02-18T00:57:46.537Z,33.20
2018-02-18T01:00:14.201Z,32.60
2018-02-18T01:02:42.469Z,32.67
2018-02-18T01:05:11.510Z,31.40
2018-02-18T01:07:39.170Z,30.87
2018-02-18T01:10:06.837Z,33.50
2018-02-18T01:12:34.543Z,33.33
2018-02-18T01:15:02.211Z,30.70
2018-02-18T01:17:29.926Z,34.53
2018-02-18T01:19:57.576Z,34.23
2018-02-18T01:22:26.038Z,34.00
2018-02-18T01:24:53.756Z,33.20
2018-02-18T01:27:21.765Z,32.53
2018-02-18T01:29:49.515Z,33.70
2018-02-18T01:32:17.208Z,33.47
2018-02-18T01:34:45.186Z,31.47
2018-02-18T01:37:12.820Z,32.40
2018-02-18T01:39:40.410Z,35.27
2018-02-18T01:42:08.783Z,34.03
2018-02-18T01:44:36.484Z,30.90
2018-02-18T01:47:04.142Z,33.73
2018-02-18T01:49:31.846Z,35.03
2018-02-18T01:51:59.540Z,35.43
2018-02-18T01:54:30.753Z,34.00
2018-02-18T01:56:58.411Z,35.53
2018-02-18T01:59:26.059Z,34.23
2018-02-18T02:01:53.724Z,34.73
2018-02-18T02:04:21.407Z,33.97
2018-02-18T02:06:49.132Z,35.97
2018-02-18T02:09:16.811Z,37.33
2018-02-18T02:11:44.486Z,34.97
2018-02-18T02:14:12.688Z,36.13
2018-02-18T02:16:40.484Z,35.03
2018-02-18T02:19:08.929Z,35.53
2018-02-18T02:21:36.801Z,34.07
2018-02-18T02:24:04.640Z,33.70
2018-02-18T02:26:32.331Z,34.30
2018-02-18T02:29:00.179Z,33.10
2018-02-18T02:31:27.848Z,35.20
2018-02-18T02:33:55.484Z,33.93
2018-02-18T02:36:23.393Z,32.53
2018-02-18T02:38:51.562Z,30.50
2018-02-18T02:41:19.267Z,34.30
2018-02-18T02:43:47.682Z,32.80
2018-02-18T02:46:17.381Z,33.83
2018-02-18T02:48:45.086Z,33.17
2018-02-18T02:51:12.752Z,33.43
2018-02-18T02:53:40.859Z,35.03
2018-02-18T02:56:08.475Z,34.90
2018-02-18T02:58:36.119Z,33.83
2018-02-18T03:01:04.395Z,33.57
2018-02-18T03:03:32.118Z,32.53
2018-02-18T03:05:59.789Z,31.97
2018-02-18T03:08:27.472Z,34.70
2018-02-18T03:10:55.138Z,33.47
2018-02-18T03:13:22.839Z,33.03
2018-02-18T03:15:50.675Z,32.00
2018-02-18T03:18:18.360Z,32.67
2018-02-18T03:20:46.210Z,32.20
2018-02-18T03:23:14.083Z,34.07
2018-02-18T03:25:42.489Z,32.63
2018-02-18T03:28:10.895Z,32.93
2018-02-18T03:30:38.758Z,33.63
2018-02-18T03:33:07.207Z,32.70
2018-02-18T03:35:35.778Z,33.13
2018-02-18T03:38:03.702Z,32.03
2018-02-18T03:40:32.705Z,33.70
2018-02-18T03:43:01.506Z,33.27
2018-02-18T03:45:29.369Z,33.13
2018-02-18T03:47:57.044Z,31.43
2018-02-18T03:50:24.879Z,31.47
2018-02-18T03:52:52.570Z,31.03
2018-02-18T03:55:20.748Z,30.03
2018-02-18T03:57:48.388Z,30.37
2018-02-18T04:00:16.833Z,30.40
2018-02-18T04:02:44.511Z,29.13
2018-02-18T04:05:12.180Z,28.83
2018-02-18T04:07:39.885Z,29.60
2018-02-18T04:10:07.550Z,28.23
2018-02-18T04:12:35.187Z,28.97
2018-02-18T04:15:03.741Z,29.77
2018-02-18T04:17:31.397Z,29.17
2018-02-18T04:19:59.145Z,28.60
2018-02-18T04:22:27.159Z,29.13
2018-02-18T04:24:54.831Z,28.63
2018-02-18T04:27:23.204Z,30.70
2018-02-18T04:29:51.293Z,29.77
2018-02-18T04:32:19.088Z,29.73
2018-02-18T04:34:46.873Z,29.70
2018-02-18T04:37:14.525Z,29.17
2018-02-18T04:39:42.201Z,29.63
2018-02-18T04:42:09.882Z,28.13
2018-02-18T04:44:46.106Z,28.67
2018-02-18T04:47:13.711Z,30.20
2018-02-18T04:49:41.385Z,29.67
2018-02-18T04:52:09.024Z,29.50
2018-02-18T04:54:36.709Z,31.37
2018-02-18T04:57:04.384Z,30.23
2018-02-18T04:59:32.012Z,29.93
2018-02-18T05:01:59.677Z,30.33
2018-02-18T05:04:27.322Z,29.73
2018-02-18T05:06:54.971Z,30.13
2018-02-18T05:09:22.636Z,31.45
2018-02-18T05:11:50.229Z,30.53
2018-02-18T05:14:21.704Z,28.33
2018-02-18T05:16:49.310Z,26.50
2018-02-18T05:19:16.921Z,27.27
2018-02-18T05:21:44.582Z,26.90
2018-02-18T05:24:13.137Z,28.33
2018-02-18T05:26:40.785Z,27.93
2018-02-18T05:29:08.439Z,28.00
2018-02-18T05:31:36.123Z,26.93
2018-02-18T05:34:03.805Z,26.20
2018-02-18T05:36:31.482Z,27.07
2018-02-18T05:38:59.131Z,26.57
2018-02-18T05:41:26.799Z,25.40
2018-02-18T05:43:54.448Z,26.33
2018-02-18T05:46:22.023Z,26.77
2018-02-18T05:48:49.685Z,26.47
2018-02-18T05:51:17.404Z,26.50
2018-02-18T05:53:45.036Z,25.67
2018-02-18T05:56:13.473Z,27.07
2018-02-18T05:58:41.127Z,27.23
2018-02-18T06:01:09.566Z,26.80
2018-02-18T06:03:38.003Z,26.93
2018-02-18T06:06:05.719Z,25.03
2018-02-18T06:08:34.159Z,26.47
2018-02-18T06:11:01.803Z,25.00
2018-02-18T06:13:29.468Z,25.33
2018-02-18T06:15:57.103Z,25.57
2018-02-18T06:18:24.771Z,25.87
2018-02-18T06:20:52.447Z,26.17
2018-02-18T06:23:20.024Z,25.07
2018-02-18T06:25:47.635Z,26.40
2018-02-18T06:28:15.282Z,25.27
2018-02-18T06:30:43.720Z,25.13
2018-02-18T06:33:11.391Z,26.17
2018-02-18T06:35:39.260Z,23.63
2018-02-18T06:38:06.927Z,25.33
2018-02-18T06:40:34.517Z,26.10
2018-02-18T06:43:02.176Z,23.47
2018-02-18T06:45:29.852Z,23.20
2018-02-18T06:47:57.511Z,24.27
2018-02-18T06:50:25.163Z,23.73
2018-02-18T06:52:52.830Z,24.67
2018-02-18T06:55:20.470Z,24.07
2018-02-18T06:57:48.120Z,22.67
2018-02-18T07:00:15.794Z,23.87
2018-02-18T07:02:43.449Z,23.80
2018-02-18T07:05:11.169Z,23.93
2018-02-18T07:07:38.839Z,23.87
2018-02-18T07:10:06.510Z,22.97
2018-02-18T07:12:34.149Z,22.80
2018-02-18T07:15:02.576Z,22.43
2018-02-18T07:17:30.238Z,23.00
2018-02-18T07:19:57.915Z,21.47
2018-02-18T07:22:25.593Z,22.77
2018-02-18T07:24:53.246Z,23.13
2018-02-18T07:27:20.933Z,21.93
2018-02-18T07:29:48.592Z,23.40
2018-02-18T07:32:16.239Z,23.07
2018-02-18T07:34:56.889Z,23.70
2018-02-18T07:37:24.590Z,24.63
2018-02-18T07:39:52.227Z,23.97
2018-02-18T07:42:19.863Z,22.87
2018-02-18T07:44:47.568Z,21.17
2018-02-18T07:47:19.882Z,23.70
2018-02-18T07:49:47.820Z,23.73
2018-02-18T07:52:15.511Z,22.90
2018-02-18T07:54:43.097Z,22.80
2018-02-18T07:57:10.708Z,23.07
2018-02-18T07:59:38.302Z,20.77
2018-02-18T08:02:05.998Z,23.27
2018-02-18T08:04:33.828Z,23.77
2018-02-18T08:07:01.470Z,21.27
2018-02-18T08:09:29.135Z,22.47
2018-02-18T08:11:56.804Z,21.87
2018-02-18T08:14:25.256Z,23.67
2018-02-18T08:16:52.919Z,22.77
2018-02-18T08:19:20.579Z,24.17
2018-02-18T08:21:49.148Z,22.17
2018-02-18T08:24:20.310Z,25.53
2018-02-18T08:26:48.007Z,23.80
2018-02-18T08:29:16.091Z,22.17
2018-02-18T08:31:44.511Z,24.23
2018-02-18T08:34:12.590Z,24.97
2018-02-18T08:36:40.220Z,25.40
2018-02-18T08:39:07.897Z,24.17
2018-02-18T08:41:35.565Z,23.30
2018-02-18T08:44:03.227Z,24.53
2018-02-18T08:46:30.902Z,24.50
2018-02-18T08:48:58.545Z,24.63
2018-02-18T08:51:26.205Z,23.50
2018-02-18T08:53:54.548Z,24.63
2018-02-18T08:56:22.978Z,24.87
2018-02-18T08:58:50.562Z,24.40
2018-02-18T09:01:21.755Z,25.50
2018-02-18T09:03:49.346Z,25.60
2018-02-18T09:06:17.576Z,25.50
2018-02-18T09:08:45.448Z,23.10
2018-02-18T09:11:13.883Z,25.20
2018-02-18T09:13:41.541Z,23.60
2018-02-18T09:16:12.916Z,23.00
2018-02-18T09:18:40.588Z,25.17
2018-02-18T09:21:08.247Z,25.07
2018-02-18T09:23:35.936Z,25.17
2018-02-18T09:26:03.562Z,23.77
2018-02-18T09:28:31.249Z,24.97
2018-02-18T09:30:59.652Z,23.17
2018-02-18T09:33:27.307Z,22.73
2018-02-18T09:35:54.976Z,24.77
2018-02-18T09:38:22.639Z,24.27
2018-02-18T09:40:50.278Z,25.23
2018-02-18T09:43:17.937Z,23.83
2018-02-18T09:45:45.797Z,25.03
2018-02-18T09:48:13.407Z,25.53
2018-02-18T09:50:41.005Z,26.13
2018-02-18T09:53:08.586Z,23.90
2018-02-18T09:55:36.154Z,23.70
2018-02-18T09:58:04.573Z,20.83
2018-02-18T10:00:32.225Z,24.37
2018-02-18T10:02:59.892Z,24.20
2018-02-18T10:05:27.593Z,23.53
2018-02-18T10:07:55.264Z,23.07
2018-02-18T10:10:22.957Z,22.73
2018-02-18T10:12:51.384Z,24.67
2018-02-18T10:15:27.547Z,23.40
2018-02-18T10:17:55.143Z,22.50
2018-02-18T10:20:22.803Z,23.67
2018-02-18T10:22:50.492Z,22.23
2018-02-18T10:25:18.943Z,20.70
2018-02-18T10:27:46.612Z,20.27
2018-02-18T10:30:14.268Z,20.63
2018-02-18T10:32:41.919Z,21.07
2018-02-18T10:35:09.577Z,21.20
2018-02-18T10:37:37.247Z,20.40
2018-02-18T10:40:04.910Z,20.90
2018-02-18T10:42:32.587Z,19.93
2018-02-18T10:45:00.437Z,20.70
2018-02-18T10:47:28.136Z,20.00
2018-02-18T10:49:56.573Z,19.77
2018-02-18T10:52:24.245Z,20.17
2018-02-18T10:54:52.143Z,19.73
2018-02-18T10:57:20.292Z,21.67
2018-02-18T10:59:48.083Z,19.97
2018-02-18T11:02:15.897Z,20.47
2018-02-18T11:04:43.542Z,18.40
2018-02-18T11:07:11.940Z,20.33
2018-02-18T11:09:40.288Z,18.67
2018-02-18T11:12:08.075Z,19.67
2018-02-18T11:14:36.677Z,20.40
2018-02-18T11:17:04.369Z,18.03
2018-02-18T11:19:32.665Z,20.43
2018-02-18T11:22:01.246Z,19.53
2018-02-18T11:24:30.569Z,18.63
2018-02-18T11:26:58.734Z,20.13
2018-02-18T11:29:26.510Z,19.60
2018-02-18T11:31:54.146Z,20.40
2018-02-18T11:34:21.801Z,20.30
2018-02-18T11:36:50.627Z,20.33
2018-02-18T11:39:18.441Z,19.43
2018-02-18T11:41:46.101Z,21.03
2018-02-18T11:44:14.573Z,19.83
2018-02-18T11:46:43.084Z,19.57
2018-02-18T11:49:10.732Z,19.20
2018-02-18T11:51:38.427Z,19.90
2018-02-18T11:54:07.143Z,18.03
2018-02-18T11:56:34.978Z,18.50
2018-02-18T11:59:02.638Z,19.57
2018-02-18T12:01:30.304Z,18.63
2018-02-18T12:03:58.367Z,19.27
2018-02-18T12:06:26.512Z,19.00
2018-02-18T12:08:54.171Z,18.20
2018-02-18T12:11:21.871Z,18.50
2018-02-18T12:13:50.025Z,17.23
2018-02-18T12:16:17.734Z,17.40
2018-02-18T12:18:45.404Z,17.23
2018-02-18T12:21:13.778Z,18.03
2018-02-18T12:23:41.430Z,17.07
2018-02-18T12:26:09.029Z,17.57
2018-02-18T12:28:39.620Z,18.00
2018-02-18T12:31:07.363Z,18.57
2018-02-18T12:33:36.214Z,18.43
2018-02-18T12:36:03.812Z,17.73
2018-02-18T12:38:31.455Z,17.50
2018-02-18T12:41:04.915Z,18.13
2018-02-18T12:43:32.565Z,17.40
2018-02-18T12:46:00.168Z,17.47
2018-02-18T12:48:28.463Z,19.37
2018-02-18T12:50:56.094Z,19.87
2018-02-18T12:53:24.516Z,19.27
2018-02-18T12:55:52.123Z,18.90
2018-02-18T12:58:19.796Z,19.73
2018-02-18T13:00:48.128Z,19.80
2018-02-18T13:03:16.538Z,17.67
2018-02-18T13:05:44.549Z,20.47
2018-02-18T13:08:12.218Z,19.27
2018-02-18T13:10:39.878Z,20.33
2018-02-18T13:13:07.575Z,18.47
2018-02-18T13:15:35.973Z,18.80
2018-02-18T13:18:03.631Z,19.10
2018-02-18T13:20:31.330Z,18.87
2018-02-18T13:22:59.002Z,21.00
2018-02-18T13:25:26.887Z,20.53
2018-02-18T13:27:54.746Z,19.37
2018-02-18T13:30:22.509Z,20.33
2018-02-18T13:32:50.341Z,19.60
2018-02-18T13:35:18.487Z,19.47
2018-02-18T13:37:46.584Z,19.83
2018-02-18T13:40:15.285Z,20.17
2018-02-18T13:42:43.617Z,20.50
2018-02-18T13:45:13.450Z,18.80
2018-02-18T13:47:41.098Z,20.20
2018-02-18T13:50:08.762Z,20.03
2018-02-18T13:52:36.883Z,18.93
2018-02-18T13:55:04.602Z,19.50
2018-02-18T13:57:32.288Z,19.50
2018-02-18T13:59:59.950Z,19.47
2018-02-18T14:02:27.582Z,18.93
2018-02-18T14:04:55.585Z,18.73
2018-02-18T14:07:23.435Z,18.80
2018-02-18T14:09:51.550Z,17.40
2018-02-18T14:12:19.238Z,16.90
2018-02-18T14:14:48.052Z,17.67
2018-02-18T14:17:15.748Z,17.67
2018-02-18T14:19:43.396Z,18.20
2018-02-18T14:22:11.062Z,18.67
2018-02-18T14:24:38.642Z,18.23
2018-02-18T14:27:06.302Z,18.57
2018-02-18T14:29:34.744Z,17.83
2018-02-18T14:32:02.450Z,20.07
2018-02-18T14:34:30.885Z,20.30
2018-02-18T14:36:58.547Z,17.17
2018-02-18T14:39:26.193Z,18.33
2018-02-18T14:42:05.653Z,18.60
2018-02-18T14:44:45.153Z,17.00
2018-02-18T14:47:24.624Z,17.30
2018-02-18T14:50:03.923Z,17.40
2018-02-18T14:52:43.209Z,17.10
2018-02-18T14:58:15.257Z,18.37
2018-02-18T15:00:42.929Z,18.30
2018-02-18T15:03:10.578Z,18.23
2018-02-18T15:05:40.205Z,18.33
2018-02-18T15:08:07.858Z,18.83
2018-02-18T15:10:35.498Z,18.33
2018-02-18T15:13:03.173Z,17.63
2018-02-18T15:15:31.583Z,18.67
2018-02-18T15:17:59.261Z,18.27
2018-02-18T15:20:26.928Z,19.77
2018-02-18T15:22:54.589Z,19.17
2018-02-18T15:25:22.208Z,19.03
2018-02-18T15:27:49.838Z,19.40
2018-02-18T15:30:17.504Z,18.40
2018-02-18T15:32:45.166Z,18.30
2018-02-18T15:35:14.928Z,18.87
2018-02-18T15:37:42.585Z,20.13
2018-02-18T15:40:10.224Z,20.00
2018-02-18T15:42:37.887Z,19.37
2018-02-18T15:45:06.336Z,18.47
2018-02-18T15:47:33.938Z,16.97
2018-02-18T15:50:01.580Z,18.53
2018-02-18T15:52:29.217Z,18.00
2018-02-18T15:54:56.887Z,19.17
2018-02-18T15:57:24.582Z,17.63
2018-02-18T15:59:53.014Z,17.80
2018-02-18T16:02:20.985Z,17.37
2018-02-18T16:04:48.758Z,18.30
2018-02-18T16:07:16.434Z,17.47
2018-02-18T16:09:44.127Z,17.43
2018-02-18T16:12:11.886Z,18.20
2018-02-18T16:14:39.652Z,16.77
2018-02-18T16:17:07.490Z,19.10
2018-02-18T16:19:35.972Z,15.97
2018-02-18T16:22:04.192Z,17.77
2018-02-18T16:24:32.559Z,18.00
2018-02-18T16:27:00.526Z,18.00
2018-02-18T16:29:29.452Z,16.50
2018-02-18T16:31:57.070Z,18.67
2018-02-18T16:34:26.821Z,17.57
2018-02-18T16:36:54.524Z,16.53
2018-02-18T16:39:23.183Z,16.70
2018-02-18T16:41:51.620Z,18.17
2018-02-18T16:44:20.480Z,19.53
2018-02-18T16:46:48.116Z,17.77
2018-02-18T16:49:15.794Z,17.60
2018-02-18T16:51:43.437Z,17.77
2018-02-18T16:54:11.313Z,17.07
2018-02-18T16:56:39.730Z,21.87
2018-02-18T16:59:09.045Z,19.13
2018-02-18T17:01:37.952Z,20.60
2018-02-18T17:04:06.298Z,20.97
2018-02-18T17:06:33.967Z,19.77
2018-02-18T17:09:04.412Z,19.73
2018-02-18T17:11:32.770Z,22.53
2018-02-18T17:14:01.736Z,19.83
2018-02-18T17:16:29.584Z,21.83
2018-02-18T17:18:58.537Z,21.07
2018-02-18T17:21:27.286Z,21.17
2018-02-18T17:23:56.641Z,21.93
2018-02-18T17:26:25.089Z,22.37
2018-02-18T17:28:52.944Z,22.90
2018-02-18T17:31:21.893Z,20.93
2018-02-18T17:33:49.793Z,22.57
2018-02-18T17:36:17.951Z,20.33
2018-02-18T17:38:47.383Z,22.17
2018-02-18T17:41:17.090Z,22.67
2018-02-18T17:43:44.868Z,22.60
2018-02-18T17:46:12.964Z,22.23
2018-02-18T17:48:40.621Z,22.53
2018-02-18T17:51:08.265Z,21.00
2018-02-18T17:53:35.921Z,22.43
2018-02-18T17:56:03.853Z,22.87
2018-02-18T17:58:31.507Z,23.23
2018-02-18T18:00:59.297Z,22.03
2018-02-18T18:03:27.611Z,23.67
2018-02-18T18:05:55.749Z,23.67
2018-02-18T18:08:24.859Z,22.63
2018-02-18T18:10:52.530Z,22.93
2018-02-18T18:13:20.199Z,21.90
2018-02-18T18:15:48.841Z,22.47
2018-02-18T18:18:17.499Z,21.73
2018-02-18T18:20:45.233Z,23.83
2018-02-18T18:23:13.029Z,22.43
2018-02-18T18:25:41.618Z,22.43
2018-02-18T18:28:09.365Z,23.80
2018-02-18T18:30:37.225Z,23.03
2018-02-18T18:33:06.152Z,23.00
2018-02-18T18:35:34.743Z,22.83
2018-02-18T18:38:04.091Z,22.90
2018-02-18T18:40:32.009Z,21.73
2018-02-18T18:43:00.116Z,22.50
2018-02-18T18:45:28.225Z,23.83
2018-02-18T18:47:55.889Z,25.43
2018-02-18T18:50:24.433Z,24.03
2018-02-18T18:52:52.656Z,22.77
2018-02-18T18:55:21.317Z,23.80
2018-02-18T18:57:49.243Z,23.20
2018-02-18T19:00:17.052Z,23.90
2018-02-18T19:02:44.652Z,24.07
2018-02-18T19:05:13.261Z,25.43
2018-02-18T19:07:42.632Z,25.23
2018-02-18T19:10:12.524Z,26.50
2018-02-18T19:12:41.855Z,25.83
2018-02-18T19:15:10.556Z,25.03
2018-02-18T19:17:38.724Z,24.80
2018-02-18T19:20:06.871Z,25.07
2018-02-18T19:22:35.960Z,24.53
2018-02-18T19:25:04.666Z,25.00
2018-02-18T19:27:35.024Z,24.87
2018-02-18T19:30:03.319Z,26.47
2018-02-18T19:32:31.008Z,28.13
2018-02-18T19:35:00.591Z,26.77
2018-02-18T19:37:28.277Z,28.53
2018-02-18T19:39:58.831Z,26.63
2018-02-18T19:42:26.833Z,27.70
2018-02-18T19:44:55.143Z,26.63
2018-02-18T19:47:24.840Z,27.23
2018-02-18T19:49:53.743Z,27.73
2018-02-18T19:52:22.853Z,28.97
2018-02-18T19:54:53.257Z,27.20
2018-02-18T19:57:22.974Z,25.50
2018-02-18T19:59:53.680Z,25.70
2018-02-18T20:02:23.547Z,26.23
2018-02-18T20:04:52.643Z,25.27
2018-02-18T20:07:24.656Z,25.20
2018-02-18T20:09:54.179Z,26.00
2018-02-18T20:12:21.908Z,23.77
2018-02-18T20:14:49.596Z,25.83
2018-02-18T20:17:17.304Z,22.23
2018-02-18T20:19:45.627Z,26.30
2018-02-18T20:22:13.272Z,25.93
2018-02-18T20:24:44.292Z,25.00
2018-02-18T20:27:11.956Z,24.53
2018-02-18T20:29:39.601Z,24.13
2018-02-18T20:32:07.277Z,25.27
2018-02-18T20:34:34.920Z,25.60
2018-02-18T20:37:02.597Z,24.83
2018-02-18T20:39:30.243Z,26.03
2018-02-18T20:41:58.676Z,25.97
2018-02-18T20:44:26.449Z,25.13
2018-02-18T20:46:54.047Z,24.70
2018-02-18T20:49:22.479Z,25.83
2018-02-18T20:51:50.693Z,27.53
2018-02-18T20:54:18.709Z,25.67
2018-02-18T20:56:46.372Z,29.90
2018-02-18T20:59:14.525Z,67.37
2018-02-18T21:01:43.569Z,50.83
2018-02-18T21:04:11.394Z,41.93
2018-02-18T21:06:39.066Z,29.83
2018-02-18T21:09:06.731Z,27.07
2018-02-18T21:11:34.397Z,26.17
2018-02-18T21:14:02.056Z,26.60
2018-02-18T21:16:30.676Z,26.47
2018-02-18T21:18:58.525Z,25.70
2018-02-18T21:21:26.215Z,25.93
2018-02-18T21:23:55.614Z,24.50
2018-02-18T21:26:23.234Z,23.67
2018-02-18T21:28:50.880Z,25.73
2018-02-18T21:31:18.550Z,25.13
2018-02-18T21:33:46.206Z,23.83
2018-02-18T21:36:14.566Z,24.13
2018-02-18T21:38:43.026Z,24.43
2018-02-18T21:41:10.649Z,24.47
2018-02-18T21:43:38.369Z,22.63
2018-02-18T21:46:06.077Z,24.63
2018-02-18T21:48:33.733Z,22.40
2018-02-18T21:51:01.417Z,24.40
2018-02-18T21:53:29.104Z,23.47
2018-02-18T21:55:56.773Z,21.33
2018-02-18T21:58:24.486Z,22.87
2018-02-18T22:00:52.155Z,22.33
2018-02-18T22:03:19.810Z,21.37
2018-02-18T22:05:47.515Z,22.00
2018-02-18T22:08:15.192Z,20.47
2018-02-18T22:10:42.867Z,20.00
2018-02-18T22:13:10.515Z,20.43
2018-02-18T22:15:38.327Z,20.20
2018-02-18T22:18:05.938Z,20.10
2018-02-18T22:20:33.585Z,19.67
2018-02-18T22:23:01.231Z,19.37
2018-02-18T22:25:28.901Z,21.13
2018-02-18T22:27:56.509Z,20.73
2018-02-18T22:30:24.208Z,20.53
2018-02-18T22:32:51.867Z,19.43
2018-02-18T22:35:20.819Z,19.37
2018-02-18T22:37:48.629Z,19.73
2018-02-18T22:40:16.345Z,18.93
2018-02-18T22:42:43.992Z,18.90
2018-02-18T22:45:11.870Z,18.83
2018-02-18T22:47:39.533Z,19.57
2018-02-18T22:50:07.190Z,20.23
2018-02-18T22:52:34.880Z,20.00
2018-02-18T22:55:02.541Z,17.70
2018-02-18T22:57:30.191Z,18.03
2018-02-18T22:59:57.901Z,19.63
2018-02-18T23:02:25.521Z,19.83
2018-02-18T23:07:54.171Z,18.33
2018-02-18T23:10:21.801Z,19.47
2018-02-18T23:12:49.448Z,18.80
2018-02-18T23:15:17.090Z,18.97
2018-02-18T23:17:44.770Z,18.53
2018-02-18T23:20:12.418Z,18.73
2018-02-18T23:22:40.066Z,18.80
2018-02-18T23:25:08.970Z,19.07
2018-02-18T23:27:36.539Z,19.13
2018-02-18T23:30:04.132Z,18.93
2018-02-18T23:32:31.744Z,17.63
2018-02-18T23:34:59.393Z,19.10
2018-02-18T23:37:27.086Z,18.90
2018-02-18T23:39:54.723Z,18.90
2018-02-18T23:42:23.879Z,18.43
2018-02-18T23:44:53.854Z,19.23
2018-02-18T23:47:21.533Z,18.03
2018-02-18T23:49:49.921Z,19.67
2018-02-18T23:52:17.896Z,20.30
2018-02-18T23:54:46.790Z,19.43
2018-02-18T23:57:14.440Z,19.13
2018-02-18T23:59:42.045Z,19.07
